Time;durP1;ratioP1;P1;durP2;ratioP2;P2;SDS_P1;SDS_P2;PMS_P1;PMS_P2;Temp;Humidity;BMP_temperature;BMP_pressure;BME280_temperature;BME280_humidity;BME280_pressure;Samples;Min_cycle;Max_cycle;Signal;HPM_P1;HPM_P2
2022/12/03 00:00:34;;;;;;;18.92;9.63;;;;;;;3.93;75.17;102043.69;4958302;28;20440;-87
2022/12/03 00:03:01;;;;;;;18.17;9.52;;;;;;;3.53;75.52;102002.41;4963425;28;20043;-88
2022/12/03 00:05:27;;;;;;;21.15;9.55;;;;;;;3.54;76.01;102006.81;4938681;28;20056;-92
2022/12/03 00:07:52;;;;;;;17.83;9.30;;;;;;;3.77;75.38;102029.50;4974941;28;20360;-89
2022/12/03 00:10:19;;;;;;;21.85;10.38;;;;;;;3.79;75.66;102033.78;4943897;28;20047;-88
2022/12/03 00:12:45;;;;;;;18.88;10.02;;;;;;;3.82;75.60;102038.09;4944558;28;20035;-89
2022/12/03 00:15:11;;;;;;;19.92;9.38;;;;;;;3.66;75.03;102005.28;4970948;28;20046;-87
2022/12/03 00:17:38;;;;;;;19.67;9.50;;;;;;;3.79;75.28;102032.91;4953528;28;20108;-88
2022/12/03 00:20:07;;;;;;;20.67;10.07;;;;;;;3.81;75.23;102028.38;4944564;28;20058;-89
2022/12/03 00:22:34;;;;;;;19.02;9.70;;;;;;;4.00;74.62;102037.09;4946509;28;20114;-89
2022/12/03 00:25:02;;;;;;;16.63;8.45;;;;;;;3.90;74.42;102017.22;4960355;28;20468;-89
2022/12/03 00:27:35;;;;;;;18.60;9.27;;;;;;;3.76;74.68;102007.34;4977303;28;20576;-88
2022/12/03 00:30:01;;;;;;;18.67;9.18;;;;;;;3.87;74.74;102021.88;4994525;28;20122;-88
2022/12/03 00:32:28;;;;;;;20.42;8.85;;;;;;;3.77;74.76;102018.88;4978957;28;20072;-86
2022/12/03 00:34:57;;;;;;;16.80;8.63;;;;;;;3.78;74.74;102010.78;4994506;28;20053;-89
2022/12/03 00:37:23;;;;;;;17.88;8.23;;;;;;;3.95;74.79;102044.44;4982888;28;20056;-88
2022/12/03 00:39:51;;;;;;;15.77;8.60;;;;;;;4.01;74.36;102036.13;4972217;28;20059;-90
2022/12/03 00:42:17;;;;;;;19.65;8.13;;;;;;;4.03;74.10;102046.69;4963112;28;20805;-91
2022/12/03 00:44:45;;;;;;;14.18;7.30;;;;;;;3.94;73.93;102058.69;4972582;28;20047;-88
2022/12/03 00:47:13;;;;;;;15.75;8.05;;;;;;;3.91;74.28;102065.97;4983652;28;20038;-87
2022/12/03 00:49:41;;;;;;;18.23;8.18;;;;;;;3.95;74.39;102065.72;4975212;28;20051;-89
2022/12/03 00:52:09;;;;;;;16.10;7.60;;;;;;;3.98;74.42;102046.94;4963733;28;20157;-90
2022/12/03 00:54:36;;;;;;;16.38;8.23;;;;;;;3.78;75.02;102047.16;4953518;28;20121;-89
2022/12/03 00:57:02;;;;;;;15.55;8.10;;;;;;;3.45;74.91;102004.63;4954477;28;20144;-89
2022/12/03 00:59:29;;;;;;;16.58;7.80;;;;;;;3.75;75.00;102057.97;4940250;28;20074;-89
2022/12/03 01:01:55;;;;;;;18.98;9.00;;;;;;;3.81;74.85;102047.00;4983353;28;20112;-88
2022/12/03 01:04:22;;;;;;;15.52;7.75;;;;;;;3.65;74.47;102004.41;4969954;28;20472;-89
2022/12/03 01:06:50;;;;;;;15.88;8.20;;;;;;;4.01;74.17;102053.91;4981017;28;20053;-88
2022/12/03 01:09:16;;;;;;;16.88;8.32;;;;;;;3.84;74.65;102028.22;4956267;28;20050;-89
2022/12/03 01:11:41;;;;;;;18.58;8.52;;;;;;;3.78;74.52;102031.22;4966570;28;20047;-89
2022/12/03 01:14:10;;;;;;;18.52;8.95;;;;;;;3.54;75.43;102009.47;4967793;28;20049;-89
2022/12/03 01:16:36;;;;;;;17.58;8.35;;;;;;;3.81;74.63;102041.66;4962092;28;20053;-88
2022/12/03 01:19:04;;;;;;;17.00;8.10;;;;;;;3.66;74.84;102032.72;4963985;28;20129;-88
2022/12/03 01:21:29;;;;;;;15.43;7.35;;;;;;;3.64;74.71;102025.78;4938649;28;20047;-88
2022/12/03 01:23:55;;;;;;;15.90;7.60;;;;;;;3.52;75.03;102009.53;4948833;28;20050;-88
2022/12/03 01:26:24;;;;;;;15.27;7.22;;;;;;;3.62;75.28;102030.31;4951779;28;20502;-89
2022/12/03 01:28:52;;;;;;;16.38;7.03;;;;;;;3.69;75.57;102037.03;4944508;28;20055;-88
2022/12/03 01:34:05;;;;;;;17.58;7.50;;;;;;;3.72;75.47;102047.50;4965333;28;20041;-88
2022/12/03 01:36:33;;;;;;;16.30;7.93;;;;;;;3.70;75.67;102057.34;4959313;28;20043;-88
2022/12/03 01:39:01;;;;;;;16.05;8.00;;;;;;;3.77;75.80;102048.13;4961537;28;20108;-88
2022/12/03 01:41:29;;;;;;;14.40;7.68;;;;;;;3.68;75.76;102045.97;4975046;28;20045;-89
2022/12/03 01:43:54;;;;;;;15.38;7.50;;;;;;;3.65;75.67;102031.00;4951116;28;20125;-88
2022/12/03 01:46:22;;;;;;;15.55;7.68;;;;;;;3.78;75.49;102032.06;4957486;28;20058;-89
2022/12/03 01:48:48;;;;;;;15.48;8.00;;;;;;;3.91;75.01;102048.22;4938651;28;20034;-89
2022/12/03 01:51:13;;;;;;;;;;;;;;;4.07;74.75;102058.00;4961031;28;20043;-87
2022/12/03 01:53:39;;;;;;;;;;;;;;;3.96;75.10;102051.50;4974338;28;19918;-88
2022/12/03 01:56:05;;;;;;;13.77;6.93;;;;;;;3.79;75.32;102027.59;4958789;28;19918;-88
2022/12/03 01:58:32;;;;;;;15.98;7.22;;;;;;;3.93;75.63;102056.09;4973449;28;20092;-89
2022/12/03 02:01:00;;;;;;;15.85;7.20;;;;;;;3.95;75.59;102044.44;4956265;28;20039;-88
2022/12/03 02:03:26;;;;;;;15.85;7.68;;;;;;;3.90;75.55;102043.84;4935288;28;20047;-88
2022/12/03 02:05:55;;;;;;;15.23;7.60;;;;;;;3.86;75.90;102049.41;4955243;28;20106;-88
2022/12/03 02:08:31;;;;;;;14.35;7.63;;;;;;;3.87;75.59;102036.03;4948681;28;20150;-88
2022/12/03 02:11:23;;;;;;;15.63;7.75;;;;;;;3.94;75.54;102058.69;4954920;28;20049;-89
2022/12/03 02:13:56;;;;;;;16.38;7.50;;;;;;;3.90;75.47;102042.97;4955056;28;20062;-90
2022/12/03 02:16:22;;;;;;;15.70;7.70;;;;;;;3.95;75.13;102032.94;4976366;28;20046;-87
2022/12/03 02:18:53;;;;;;;15.43;7.53;;;;;;;3.98;74.92;102043.41;4965771;28;20061;-88
2022/12/03 02:21:45;;;;;;;14.40;7.40;;;;;;;4.22;74.53;102063.34;4963615;28;20051;-88
2022/12/03 02:24:36;;;;;;;15.50;7.22;;;;;;;4.11;74.87;102063.09;4966661;28;20050;-89
2022/12/03 02:27:03;;;;;;;15.73;7.72;;;;;;;3.97;75.12;102055.84;4976620;28;20146;-89
2022/12/03 02:29:30;;;;;;;16.10;7.82;;;;;;;3.81;74.88;102041.66;4948531;28;20070;-88
2022/12/03 02:31:56;;;;;;;14.70;7.53;;;;;;;3.88;75.43;102067.00;4980272;28;20126;-90
2022/12/03 02:34:41;;;;;;;14.05;7.32;;;;;;;3.89;75.59;102066.06;4958700;28;20111;-90
2022/12/03 02:37:10;;;;;;;19.08;7.75;;;;;;;3.82;75.57;102054.06;4982376;28;20034;-90
2022/12/03 02:39:38;;;;;;;18.48;8.23;;;;;;;4.02;75.26;102072.41;4967000;28;20137;-89
2022/12/03 02:44:49;;;;;;;17.23;7.50;;;;;;;3.99;74.90;102072.59;4957249;28;20152;-88
2022/12/03 02:47:19;;;;;;;14.50;7.45;;;;;;;3.59;75.48;102034.00;4940149;28;20039;-88
2022/12/03 02:49:56;;;;;;;14.82;7.22;;;;;;;3.67;75.58;102039.75;4978268;28;20043;-88
2022/12/03 02:52:23;;;;;;;14.95;7.35;;;;;;;3.59;75.45;102016.25;4951246;28;20097;-89
2022/12/03 02:54:49;;;;;;;16.45;8.07;;;;;;;3.94;75.10;102072.00;4956559;28;20047;-90
2022/12/03 02:57:15;;;;;;;16.08;7.55;;;;;;;3.94;74.94;102058.69;4962444;28;20205;-87
2022/12/03 02:59:44;;;;;;;14.15;7.15;;;;;;;4.01;74.46;102064.53;4946139;28;20495;-89
2022/12/03 03:02:10;;;;;;;12.82;6.47;;;;;;;3.97;74.26;102061.19;4945796;28;20151;-89
2022/12/03 03:04:37;;;;;;;13.27;6.75;;;;;;;3.84;74.71;102048.63;4956365;28;20062;-87
2022/12/03 03:07:03;;;;;;;12.85;6.57;;;;;;;3.97;74.51;102061.19;4957923;28;20054;-87
2022/12/03 03:09:30;;;;;;;13.27;6.60;;;;;;;3.79;74.71;102054.19;4966536;28;20098;-90
2022/12/03 03:11:57;;;;;;;12.40;6.38;;;;;;;3.61;74.94;102028.63;4945177;28;20047;-88
2022/12/03 03:14:24;;;;;;;13.48;6.75;;;;;;;3.83;74.70;102053.09;4942028;28;20046;-89
2022/12/03 03:16:54;;;;;;;12.20;5.95;;;;;;;4.07;74.29;102084.63;4963698;28;20035;-90
2022/12/03 03:19:24;;;;;;;13.52;6.80;;;;;;;4.02;74.05;102067.09;4957185;28;20122;-89
2022/12/03 03:21:50;;;;;;;15.10;7.35;;;;;;;4.10;74.09;102084.47;4971534;28;20034;-89
2022/12/03 03:24:16;;;;;;;15.20;6.72;;;;;;;3.98;74.31;102076.22;4940998;28;20054;-89
2022/12/03 03:26:42;;;;;;;11.52;6.38;;;;;;;3.97;74.12;102074.47;4927351;28;20037;-88
2022/12/03 03:29:07;;;;;;;14.38;7.10;;;;;;;3.84;74.33;102057.50;4943047;28;20475;-88
2022/12/03 03:31:34;;;;;;;13.68;7.00;;;;;;;3.81;74.28;102057.63;4989654;28;20114;-90
2022/12/03 03:34:01;;;;;;;;;;;;;;;3.99;74.25;102088.56;4994262;28;20049;-88
2022/12/03 03:36:28;;;;;;;11.98;6.28;;;;;;;3.81;74.44;102068.28;4994180;28;19961;-88
2022/12/03 03:38:55;;;;;;;14.05;7.35;;;;;;;3.91;74.91;102090.81;4961587;28;20468;-88
2022/12/03 03:41:24;;;;;;;14.45;7.03;;;;;;;3.93;74.46;102096.91;5001119;28;20101;-89
2022/12/03 03:43:51;;;;;;;21.45;7.88;;;;;;;3.64;74.78;102060.34;4999082;28;20027;-89
2022/12/03 03:46:16;;;;;;;15.30;7.50;;;;;;;3.65;74.98;102070.03;4967262;28;20108;-87
2022/12/03 03:48:43;;;;;;;17.33;8.00;;;;;;;3.91;74.89;102104.09;4979279;28;20050;-89
2022/12/03 03:51:10;;;;;;;15.70;7.65;;;;;;;3.55;74.92;102051.06;4998205;28;20056;-90
2022/12/03 03:53:38;;;;;;;14.38;7.32;;;;;;;3.89;75.17;102094.50;4956704;28;20122;-89
2022/12/03 03:56:05;;;;;;;15.93;7.05;;;;;;;4.06;74.55;102109.53;4958978;28;20042;-89
2022/12/03 03:58:30;;;;;;;14.55;7.65;;;;;;;3.83;74.87;102100.97;4951562;28;20035;-89
2022/12/03 04:00:56;;;;;;;17.33;6.75;;;;;;;3.74;74.83;102096.16;4946049;28;20042;-88
2022/12/03 04:03:22;;;;;;;15.02;7.20;;;;;;;3.78;74.96;102097.72;4965729;28;20073;-88
2022/12/03 04:05:49;;;;;;;16.63;7.63;;;;;;;3.85;74.88;102096.44;4943557;28;20104;-89
2022/12/03 04:08:20;;;;;;;16.60;7.78;;;;;;;3.97;74.70;102118.88;4974649;28;20054;-89
2022/12/03 04:13:32;;;;;;;13.93;7.30;;;;;;;3.88;74.92;102128.19;5011659;28;20036;-87
2022/12/03 04:15:58;;;;;;;13.75;7.30;;;;;;;3.84;74.55;102115.13;4996195;28;20094;-86
2022/12/03 04:18:43;;;;;;;14.18;7.05;;;;;;;3.89;74.70;102132.59;5000804;28;20153;-89
2022/12/03 04:24:02;;;;;;;51.08;30.40;;;;;;;3.80;75.09;102119.78;4960998;28;20054;-89
2022/12/03 04:29:14;;;;;;;16.27;7.97;;;;;;;3.60;75.12;102115.50;4973433;28;20042;-87
2022/12/03 04:37:13;;;;;;;13.10;6.63;;;;;;;3.63;75.22;102136.63;4961616;28;20117;-89
2022/12/03 04:39:38;;;;;;;13.05;6.20;;;;;;;3.71;75.20;102147.72;4951845;28;20489;-88
2022/12/03 04:42:05;;;;;;;13.90;6.57;;;;;;;3.63;75.10;102131.31;4960135;28;20035;-89
2022/12/03 04:44:32;;;;;;;12.02;6.00;;;;;;;3.83;74.83;102151.53;4957384;28;20086;-86
2022/12/03 04:47:01;;;;;;;13.05;6.10;;;;;;;3.61;74.71;102129.69;4971086;28;20129;-87
2022/12/03 04:49:27;;;;;;;16.38;6.43;;;;;;;3.64;74.81;102125.03;4960381;28;20555;-87
2022/12/03 04:51:53;;;;;;;11.32;5.85;;;;;;;3.73;74.60;102151.16;4953169;28;20046;-89
2022/12/03 04:54:20;;;;;;;12.35;6.22;;;;;;;3.56;74.22;102108.63;4971591;28;20057;-90
2022/12/03 04:56:46;;;;;;;10.30;5.43;;;;;;;3.65;74.26;102120.56;4948266;28;20054;-88
2022/12/03 04:59:11;;;;;;;13.43;6.20;;;;;;;3.86;74.32;102150.50;4939683;28;20503;-88
2022/12/03 05:01:37;;;;;;;12.98;6.20;;;;;;;3.74;74.12;102128.06;4948366;28;20051;-87
2022/12/03 05:04:06;;;;;;;12.27;5.57;;;;;;;3.81;73.99;102148.94;4978905;28;20034;-89
2022/12/03 05:06:45;;;;;;;11.85;5.90;;;;;;;3.79;73.85;102137.56;4965800;28;20042;-89
2022/12/03 05:09:35;;;;;;;11.75;5.78;;;;;;;3.74;73.81;102133.41;4963288;28;20054;-88
2022/12/03 05:12:02;;;;;;;12.65;5.80;;;;;;;3.86;73.81;102161.16;4970096;28;20145;-87
2022/12/03 05:14:34;;;;;;;14.45;6.40;;;;;;;3.66;73.96;102143.59;4981919;28;20054;-91
2022/12/03 05:16:59;;;;;;;13.88;6.10;;;;;;;3.65;74.15;102150.69;4940667;28;20066;-90
2022/12/03 05:20:40;;;;;;;12.77;5.85;;;;;;;3.69;74.09;102154.06;4959872;28;20047;-89
2022/12/03 05:22:16;;;;;;;12.90;5.68;;;;;;;3.54;74.14;102137.97;4978111;28;20049;-89
2022/12/03 05:24:46;;;;;;;11.90;5.80;;;;;;;3.69;74.38;102156.72;4955588;28;20047;-88
2022/12/03 05:27:20;;;;;;;12.68;6.10;;;;;;;3.74;74.33;102175.97;4961853;28;20065;-90
2022/12/03 05:29:46;;;;;;;12.57;6.22;;;;;;;3.57;74.72;102156.41;4937241;28;20065;-88
2022/12/03 05:32:14;;;;;;;17.23;6.68;;;;;;;3.73;74.33;102175.09;4950958;28;20034;-88
2022/12/03 05:34:40;;;;;;;13.60;7.03;;;;;;;3.66;74.56;102159.56;4959205;28;20077;-89
2022/12/03 05:37:06;;;;;;;12.85;6.05;;;;;;;3.67;74.67;102185.19;4921823;28;20137;-87
2022/12/03 05:39:33;;;;;;;17.20;8.15;;;;;;;3.66;74.46;102170.19;4953852;28;20081;-87
2022/12/03 05:44:47;;;;;;;17.50;7.65;;;;;;;3.72;74.29;102175.16;4957373;28;20538;-91
2022/12/03 05:47:13;;;;;;;20.35;6.97;;;;;;;3.85;74.05;102188.72;4960214;28;20038;-89
2022/12/03 05:49:43;;;;;;;13.65;6.80;;;;;;;3.70;73.87;102166.41;4951557;28;20054;-91
2022/12/03 05:52:11;;;;;;;13.55;6.88;;;;;;;3.62;74.09;102163.31;4974670;28;20042;-90
2022/12/03 05:54:37;;;;;;;16.73;6.60;;;;;;;3.74;74.10;102190.09;4971008;28;20083;-90
2022/12/03 05:57:03;;;;;;;14.85;6.88;;;;;;;3.93;74.05;102210.44;4942622;28;20049;-89
2022/12/03 05:59:30;;;;;;;15.55;7.07;;;;;;;3.53;73.85;102154.00;4972250;28;20152;-90
2022/12/03 06:01:57;;;;;;;18.63;7.65;;;;;;;3.73;73.92;102182.22;4958767;28;20045;-88
2022/12/03 06:04:24;;;;;;;14.45;7.90;;;;;;;3.63;73.71;102165.00;4976219;28;20043;-89
2022/12/03 06:06:51;;;;;;;18.17;8.20;;;;;;;3.87;73.95;102205.47;4957741;28;20050;-90
2022/12/03 06:09:18;;;;;;;17.50;8.10;;;;;;;3.91;73.74;102199.00;4970106;28;20043;-89
2022/12/03 06:11:43;;;;;;;16.00;7.57;;;;;;;4.10;73.68;102217.56;4985754;28;20077;-87
2022/12/03 06:14:09;;;;;;;21.40;8.30;;;;;;;3.97;73.42;102191.56;4955719;28;20034;-86
2022/12/03 06:16:36;;;;;;;17.27;8.27;;;;;;;4.18;72.95;102212.69;4984653;28;20194;-89
2022/12/03 06:19:02;;;;;;;16.23;8.13;;;;;;;4.32;72.58;102222.59;4977106;28;20116;-87
2022/12/03 06:21:33;;;;;;;17.45;8.23;;;;;;;3.92;72.64;102185.66;4965045;28;20042;-91
2022/12/03 06:24:01;;;;;;;18.55;9.15;;;;;;;4.08;72.21;102206.13;4978788;28;20525;-89
2022/12/03 06:26:29;;;;;;;16.45;8.40;;;;;;;3.97;73.17;102218.19;4959177;28;20549;-87
2022/12/03 06:28:57;;;;;;;17.77;8.85;;;;;;;4.15;72.70;102227.03;4955278;28;20043;-90
2022/12/03 06:31:23;;;;;;;18.65;9.02;;;;;;;4.17;72.74;102218.97;4957905;28;20120;-88
2022/12/03 06:33:55;;;;;;;20.88;9.57;;;;;;;4.21;72.33;102225.81;4937767;28;20055;-91
2022/12/03 06:36:22;;;;;;;19.58;9.13;;;;;;;3.96;72.38;102189.88;4977726;28;20035;-91
2022/12/03 06:38:48;;;;;;;17.90;8.45;;;;;;;4.05;72.87;102200.94;4957173;28;20066;-89
2022/12/03 06:41:14;;;;;;;20.00;8.93;;;;;;;4.10;72.46;102196.28;4942726;28;20141;-87
2022/12/03 06:43:39;;;;;;;19.98;8.45;;;;;;;3.82;72.81;102184.41;4955728;28;20404;-86
2022/12/03 06:46:05;;;;;;;28.48;10.13;;;;;;;4.15;74.09;102204.88;4958177;28;20303;-90
2022/12/03 06:48:31;;;;;;;26.40;8.45;;;;;;;4.41;72.43;102225.63;4977282;28;20043;-88
2022/12/03 06:50:57;;;;;;;16.80;8.35;;;;;;;4.23;71.93;102181.34;4975572;28;20121;-87
2022/12/03 06:53:23;;;;;;;15.23;7.88;;;;;;;4.40;72.05;102205.28;4957233;28;20042;-85
2022/12/03 06:55:49;;;;;;;18.35;8.63;;;;;;;4.22;71.63;102187.63;4958018;28;20084;-86
2022/12/03 06:58:15;;;;;;;17.48;8.52;;;;;;;4.25;71.64;102163.50;4928463;28;20427;-87
2022/12/03 07:00:41;;;;;;;15.82;7.88;;;;;;;4.55;71.16;102202.72;4974897;28;20132;-87
2022/12/03 07:03:06;;;;;;;18.02;8.85;;;;;;;4.59;70.53;102190.94;4945827;28;20049;-87
2022/12/03 07:05:34;;;;;;;19.08;8.52;;;;;;;4.65;70.63;102214.56;4975449;28;20146;-87
2022/12/03 07:08:01;;;;;;;17.80;8.38;;;;;;;4.62;70.72;102212.09;4956279;28;20042;-87
2022/12/03 07:10:30;;;;;;;22.17;8.50;;;;;;;4.57;71.00;102208.81;4960042;28;20488;-87
2022/12/03 07:12:57;;;;;;;19.75;8.60;;;;;;;4.39;71.31;102213.34;4958854;28;20043;-87
2022/12/03 07:15:24;;;;;;;21.50;8.98;;;;;;;4.39;71.29;102190.22;4977595;28;20033;-87
2022/12/03 07:17:52;;;;;;;19.00;8.95;;;;;;;4.54;70.90;102196.53;4966155;28;20061;-85
2022/12/03 07:20:18;;;;;;;22.55;9.48;;;;;;;4.69;71.37;102220.59;4975843;28;20128;-86
2022/12/03 07:22:45;;;;;;;17.35;8.70;;;;;;;4.63;71.23;102200.47;4938588;28;20042;-85
2022/12/03 07:25:12;;;;;;;20.08;8.55;;;;;;;4.80;70.68;102207.53;4959080;28;20522;-86
2022/12/03 07:27:38;;;;;;;17.77;8.00;;;;;;;4.95;70.27;102206.66;4966033;28;20141;-86
2022/12/03 07:30:05;;;;;;;19.50;8.45;;;;;;;4.90;70.26;102215.88;4975834;28;20075;-86
2022/12/03 07:32:31;;;;;;;19.42;8.52;;;;;;;4.96;69.53;102215.53;4930676;29;20122;-88
2022/12/03 07:34:57;;;;;;;17.95;7.85;;;;;;;5.08;69.20;102206.84;4969455;28;20031;-86
2022/12/03 07:37:24;;;;;;;19.38;8.40;;;;;;;5.12;68.57;102192.38;4975741;28;20049;-86
2022/12/03 07:39:51;;;;;;;17.15;8.52;;;;;;;5.08;68.62;102185.53;4973041;28;20039;-86
2022/12/03 07:42:17;;;;;;;19.63;8.85;;;;;;;5.22;68.26;102176.69;4943817;28;20396;-86
2022/12/03 07:44:44;;;;;;;22.33;9.48;;;;;;;5.18;68.83;102210.69;4973399;28;20046;-85
2022/12/03 07:47:12;;;;;;;20.92;9.20;;;;;;;5.38;68.24;102219.34;4972775;28;20141;-86
2022/12/03 07:49:39;;;;;;;19.25;8.20;;;;;;;5.56;67.50;102226.28;4973060;28;20106;-88
2022/12/03 07:52:06;;;;;;;18.65;8.35;;;;;;;5.66;67.28;102237.25;4977258;28;20058;-86
2022/12/03 07:54:33;;;;;;;17.58;8.07;;;;;;;5.64;67.15;102234.72;4953425;28;20051;-89
2022/12/03 07:56:58;;;;;;;17.75;7.75;;;;;;;5.81;66.64;102238.19;4975584;28;20052;-90
2022/12/03 07:59:24;;;;;;;18.42;7.35;;;;;;;5.79;66.33;102235.59;4947392;28;20051;-88
2022/12/03 08:01:50;;;;;;;15.98;7.72;;;;;;;5.59;66.57;102199.41;4993400;28;20045;-86
2022/12/03 08:04:17;;;;;;;17.40;8.43;;;;;;;5.99;66.51;102246.91;4956975;28;20475;-87
2022/12/03 08:06:44;;;;;;;22.48;8.57;;;;;;;5.96;65.77;102215.91;4950552;28;20043;-86
2022/12/03 08:09:10;;;;;;;17.30;7.80;;;;;;;5.93;65.07;102194.72;4955085;28;20034;-86
2022/12/03 08:11:36;;;;;;;16.58;7.57;;;;;;;6.17;65.15;102223.59;4975547;28;20050;-87
2022/12/03 08:14:12;;;;;;;18.75;7.47;;;;;;;6.04;65.03;102202.09;4972792;28;20133;-87
2022/12/03 08:16:38;;;;;;;14.68;7.60;;;;;;;6.23;64.75;102239.25;4960678;28;20042;-86
2022/12/03 08:19:11;;;;;;;19.05;7.75;;;;;;;6.15;64.45;102204.13;4956099;28;20046;-87
2022/12/03 08:21:40;;;;;;;16.45;7.60;;;;;;;6.38;64.03;102206.22;4972812;28;20046;-89
2022/12/03 08:24:24;;;;;;;19.20;7.90;;;;;;;6.60;63.92;102211.06;4980216;28;20048;-89
2022/12/03 08:26:49;;;;;;;17.33;8.82;;;;;;;6.62;63.81;102233.19;4980059;28;20039;-86
2022/12/03 08:29:23;;;;;;;16.55;8.32;;;;;;;6.64;64.38;102233.13;4980233;28;20409;-87
2022/12/03 08:31:53;;;;;;;21.00;9.10;;;;;;;6.90;63.27;102239.47;4967786;28;20120;-86
2022/12/03 08:34:26;;;;;;;20.40;9.40;;;;;;;6.77;63.08;102204.66;4975228;28;20097;-87
2022/12/03 08:36:58;;;;;;;22.60;9.30;;;;;;;6.92;62.95;102200.97;4964521;28;20500;-88
2022/12/03 08:39:32;;;;;;;17.50;8.85;;;;;;;7.07;62.58;102214.31;4942252;28;20049;-88
2022/12/03 08:45:38;;;;;;;14.10;7.40;;;;;;;7.21;61.92;102230.34;4963650;28;20045;-88
2022/12/03 08:48:26;;;;;;;15.40;8.00;;;;;;;7.24;61.92;102232.81;4997125;28;20034;-86
2022/12/03 08:50:55;;;;;;;16.83;8.05;;;;;;;7.25;61.52;102205.06;4988007;28;20038;-86
2022/12/03 08:54:02;;;;;;;15.60;7.75;;;;;;;7.28;61.02;102228.09;4955738;28;20141;-86
2022/12/03 08:56:35;;;;;;;17.83;8.95;;;;;;;7.35;60.72;102208.88;4966277;28;20420;-86
2022/12/03 08:59:31;;;;;;;18.88;8.40;;;;;;;7.66;60.52;102222.03;4959555;28;20038;-89
2022/12/03 09:01:58;;;;;;;19.33;9.32;;;;;;;7.45;60.82;102214.47;4977144;28;20050;-88
2022/12/03 09:04:53;;;;;;;19.33;9.25;;;;;;;7.46;61.16;102231.38;4981029;28;20031;-85
2022/12/03 09:07:25;;;;;;;14.43;7.82;;;;;;;7.34;60.95;102191.09;4962172;28;20130;-88
2022/12/03 09:09:54;;;;;;;18.88;8.63;;;;;;;7.30;61.06;102202.09;4956755;28;20471;-88
2022/12/03 09:12:19;;;;;;;17.38;9.05;;;;;;;7.43;61.02;102188.78;4949407;28;20117;-86
2022/12/03 09:14:46;;;;;;;24.38;9.80;;;;;;;7.61;60.67;102219.66;4963064;28;20492;-87
2022/12/03 09:17:15;;;;;;;19.15;9.25;;;;;;;7.51;60.65;102199.81;4985225;28;20043;-85
2022/12/03 09:19:43;;;;;;;18.25;8.50;;;;;;;7.84;60.35;102226.09;4976298;28;20074;-84
2022/12/03 09:22:11;;;;;;;24.63;9.77;;;;;;;7.81;60.47;102195.03;4965525;28;20043;-86
2022/12/03 09:24:37;;;;;;;20.23;9.00;;;;;;;7.99;60.24;102189.38;4941996;28;20061;-85
2022/12/03 09:27:06;;;;;;;17.23;8.23;;;;;;;7.90;59.98;102203.41;4958641;28;20396;-87
2022/12/03 09:29:33;;;;;;;19.73;9.05;;;;;;;7.87;59.63;102191.09;4982084;28;20051;-87
2022/12/03 09:32:02;;;;;;;22.83;9.00;;;;;;;8.05;59.79;102196.97;4982966;28;20072;-89
2022/12/03 09:34:27;;;;;;;20.08;8.90;;;;;;;7.97;58.90;102189.47;4946980;28;20427;-88
2022/12/03 09:36:54;;;;;;;20.27;9.05;;;;;;;8.28;59.18;102213.28;4970786;28;20049;-86
2022/12/03 09:39:20;;;;;;;21.67;9.20;;;;;;;8.19;59.30;102231.72;4951451;28;20395;-90
2022/12/03 09:41:58;;;;;;;;;;;;;;;8.36;58.86;102222.50;4976421;28;20185;-88
2022/12/03 09:44:24;;;;;;;21.40;9.00;;;;;;;8.06;59.07;102187.13;4974060;28;19911;-88
2022/12/03 09:46:52;;;;;;;22.52;9.13;;;;;;;8.41;58.90;102215.00;4955288;28;20045;-90
2022/12/03 09:49:19;;;;;;;18.25;9.10;;;;;;;8.36;58.33;102178.75;4958333;28;20051;-90
2022/12/03 09:51:44;;;;;;;19.60;8.63;;;;;;;8.53;58.03;102170.38;4966733;28;20072;-88
2022/12/03 09:54:12;;;;;;;21.92;8.82;;;;;;;8.79;57.36;102179.22;4936293;28;20423;-89
2022/12/03 09:56:37;;;;;;;23.02;9.52;;;;;;;9.44;56.63;102203.94;4949504;28;20153;-91
2022/12/03 09:59:23;;;;;;;17.60;9.30;;;;;;;9.91;55.30;102205.66;4965005;28;20030;-90
2022/12/03 10:02:28;;;;;;;21.17;9.93;;;;;;;9.83;55.16;102197.38;4965950;28;20046;-89
2022/12/03 10:04:55;;;;;;;;;;;;;;;10.02;54.20;102201.28;4959847;28;20110;-89
2022/12/03 10:07:36;;;;;;;18.02;8.80;;;;;;;9.80;54.72;102186.84;4938203;28;19914;-88
2022/12/03 10:10:03;;;;;;;22.50;9.15;;;;;;;9.70;54.34;102172.41;4939725;28;20043;-88
2022/12/03 10:12:28;;;;;;;;;;;;;;;10.01;53.78;102199.59;4981836;28;20047;-91
2022/12/03 10:15:02;;;;;;;21.63;10.48;;;;;;;9.93;54.37;102197.50;4970958;28;19964;-88
2022/12/03 10:17:30;;;;;;;23.58;10.07;;;;;;;10.01;54.69;102196.91;4976279;28;20137;-88
2022/12/03 10:19:59;;;;;;;17.73;10.32;;;;;;;9.98;54.31;102183.72;4945960;28;20043;-90
2022/12/03 10:22:26;;;;;;;23.20;11.63;;;;;;;9.46;55.35;102159.91;4948706;28;20038;-87
2022/12/03 10:25:14;;;;;;;21.02;10.93;;;;;;;9.16;55.94;102154.19;4948910;28;20042;-88
2022/12/03 10:27:44;;;;;;;22.05;10.90;;;;;;;9.18;56.20;102150.41;4944845;28;20500;-87
2022/12/03 10:30:18;;;;;;;19.25;9.95;;;;;;;9.21;56.22;102160.06;4948839;28;20195;-88
2022/12/03 10:32:51;;;;;;;20.50;9.10;;;;;;;9.50;55.58;102182.88;4965479;28;20039;-89
2022/12/03 10:35:23;;;;;;;20.15;10.32;;;;;;;9.22;55.41;102151.88;4962885;28;20527;-87
2022/12/03 10:38:18;;;;;;;22.88;11.60;;;;;;;9.43;55.88;102186.97;4964911;28;20070;-87
2022/12/03 10:40:43;;;;;;;27.08;10.70;;;;;;;8.98;57.13;102162.63;4935213;28;20047;-88
2022/12/03 10:43:21;;;;;;;27.38;13.45;;;;;;;9.16;56.97;102189.06;4952340;28;20376;-87
2022/12/03 10:46:05;;;;;;;22.73;10.98;;;;;;;9.05;57.52;102188.00;4952195;28;20121;-88
2022/12/03 10:48:31;;;;;;;19.98;10.32;;;;;;;8.89;57.64;102165.97;4964213;28;20046;-88
2022/12/03 10:51:19;;;;;;;18.50;10.40;;;;;;;9.03;57.70;102165.81;4950942;28;20128;-90
2022/12/03 10:53:47;;;;;;;23.60;10.70;;;;;;;8.73;57.98;102176.13;4922581;28;20034;-89
2022/12/03 10:56:19;;;;;;;20.60;10.60;;;;;;;8.44;58.28;102157.66;4938922;28;20050;-90
2022/12/03 10:58:45;;;;;;;20.85;11.07;;;;;;;8.39;59.38;102167.81;4938451;28;20054;-89
2022/12/03 11:01:20;;;;;;;21.65;11.68;;;;;;;8.64;58.65;102172.31;4931036;28;20039;-87
2022/12/03 11:03:47;;;;;;;18.98;10.82;;;;;;;8.70;58.12;102171.84;4920923;28;20130;-87
2022/12/03 11:06:23;;;;;;;18.45;10.85;;;;;;;8.60;58.40;102152.88;4932646;28;20448;-87
2022/12/03 11:08:52;;;;;;;23.10;11.73;;;;;;;8.63;58.73;102182.16;4933296;28;20106;-90
2022/12/03 11:11:27;;;;;;;23.45;11.63;;;;;;;8.34;58.94;102141.34;4955454;28;20070;-88
2022/12/03 11:14:00;;;;;;;26.00;13.15;;;;;;;8.32;59.08;102147.78;4944367;28;20044;-89
2022/12/03 11:16:39;;;;;;;20.10;11.55;;;;;;;8.61;58.71;102181.41;4942879;28;20055;-90
2022/12/03 11:19:38;;;;;;;22.50;12.20;;;;;;;8.44;59.46;102155.81;4969733;28;20462;-88
2022/12/03 11:22:05;;;;;;;23.80;11.70;;;;;;;8.47;59.40;102170.81;4975398;28;20153;-89
2022/12/03 11:24:31;;;;;;;26.65;12.77;;;;;;;8.45;59.73;102186.16;4956835;28;20035;-89
2022/12/03 11:27:03;;;;;;;31.02;12.50;;;;;;;8.13;60.23;102151.78;4971159;28;20047;-90
2022/12/03 11:29:46;;;;;;;20.95;10.48;;;;;;;8.45;59.66;102183.47;4969983;28;20098;-91
2022/12/03 11:32:37;;;;;;;23.83;11.20;;;;;;;8.48;59.36;102182.41;4965397;28;20038;-91
2022/12/03 11:35:15;;;;;;;20.23;10.88;;;;;;;8.37;59.88;102177.78;4961980;28;20432;-90
2022/12/03 11:37:41;;;;;;;22.90;10.80;;;;;;;8.13;59.98;102137.53;4983895;28;20107;-88
2022/12/03 11:40:33;;;;;;;20.13;9.30;;;;;;;8.32;59.53;102139.75;4967668;28;20034;-88
2022/12/03 11:42:59;;;;;;;21.25;10.32;;;;;;;8.31;60.16;102178.22;4982405;28;20031;-91
2022/12/03 11:45:32;;;;;;;;;;;;;;;8.19;60.25;102169.22;4981937;28;20046;-87
2022/12/03 11:48:13;;;;;;;16.45;8.95;;;;;;;8.07;60.79;102173.63;4951585;28;19914;-90
2022/12/03 11:50:53;;;;;;;20.83;10.48;;;;;;;7.80;60.84;102142.47;4932641;28;20524;-88
2022/12/03 11:53:23;;;;;;;22.33;11.13;;;;;;;7.94;61.49;102180.81;4950025;28;20106;-89
2022/12/03 11:56:22;;;;;;;24.45;12.88;;;;;;;7.82;62.04;102178.03;4946778;28;20433;-90
2022/12/03 11:59:11;;;;;;;28.23;13.18;;;;;;;7.50;62.54;102157.97;4970962;28;20133;-88
2022/12/03 12:01:40;;;;;;;32.90;13.02;;;;;;;7.43;62.44;102156.66;4948403;29;20058;-90
2022/12/03 12:04:16;;;;;;;28.98;13.38;;;;;;;7.45;62.28;102155.59;4936552;29;20043;-87